Boston, Massachusetts
Traffic Map
Current Weather Conditions
Boston, Massachusetts
Overcast
Overcast
38°
Feels Like: 33°
Wind Chill: 33° Ceiling: 20000
Heat Index: 38° Visibility: 10mi
Dew Point: 34° Wind: 7mph
Humidity: 86% Direction: 200° (SSW)
Pressure: 30.2in Gusts: 0mph
Raw Report DataKBOS 190654Z 20006KT 10SM FEW150 OVC200 03/01 A3020 RMK AO2 SLP227 T00330011
Traffic Incident Summary
Active as of:
Severity:
Category:
InformationThere was an issue retrieving the traffic information for this location. Please try a different location or try again shortly.
Advertisements
At Last! Intellicast now available for iPhone and Android